createdAt,value
2023-05-15T00:01:23.509Z,5.68
2023-05-15T00:03:52.240Z,5.33
2023-05-15T00:06:20.185Z,5.37
2023-05-15T00:08:47.512Z,5.97
2023-05-15T00:11:15.435Z,6.33
2023-05-15T00:13:42.807Z,8.33
2023-05-15T00:16:10.184Z,6.60
2023-05-15T00:18:37.998Z,6.00
2023-05-15T00:21:05.350Z,5.20
2023-05-15T00:23:32.682Z,4.30
2023-05-15T00:26:00.484Z,4.97
2023-05-15T00:28:27.740Z,7.77
2023-05-15T00:30:56.534Z,5.55
2023-05-15T00:33:24.141Z,3.43
2023-05-15T00:35:51.393Z,3.50
2023-05-15T00:38:18.680Z,2.83
2023-05-15T00:40:46.769Z,3.20
2023-05-15T00:43:16.231Z,5.43
2023-05-15T00:45:44.153Z,3.60
2023-05-15T00:48:12.416Z,3.10
2023-05-15T00:50:41.662Z,8.17
2023-05-15T00:53:10.015Z,2.87
2023-05-15T00:55:39.515Z,3.83
2023-05-15T00:58:08.221Z,3.97
2023-05-15T01:00:36.312Z,3.65
2023-05-15T01:03:06.414Z,3.30
2023-05-15T01:05:34.194Z,4.47
2023-05-15T01:08:16.951Z,2.70
2023-05-15T01:10:47.756Z,3.10
2023-05-15T01:13:16.180Z,2.97
2023-05-15T01:15:44.053Z,5.07
2023-05-15T01:18:12.072Z,4.32
2023-05-15T01:21:05.503Z,4.07
2023-05-15T01:24:01.883Z,2.93
2023-05-15T01:27:02.628Z,2.77
2023-05-15T01:29:41.650Z,4.00
2023-05-15T01:32:24.329Z,3.47
2023-05-15T01:34:52.007Z,3.80
2023-05-15T01:37:24.886Z,3.50
2023-05-15T01:39:58.578Z,4.83
2023-05-15T01:42:34.522Z,4.63
2023-05-15T01:45:05.985Z,4.63
2023-05-15T01:47:45.696Z,5.93
2023-05-15T01:50:17.267Z,5.13
2023-05-15T01:53:05.474Z,3.83
2023-05-15T01:55:35.222Z,3.67
2023-05-15T01:58:03.425Z,4.45
2023-05-15T02:00:31.454Z,3.10
2023-05-15T02:03:00.349Z,3.75
2023-05-15T02:05:29.919Z,4.83
2023-05-15T02:07:57.317Z,3.60
2023-05-15T02:10:26.617Z,5.80
2023-05-15T02:12:55.341Z,4.33
2023-05-15T02:15:25.014Z,3.65
2023-05-15T02:17:52.549Z,5.07
2023-05-15T02:20:20.536Z,4.33
2023-05-15T02:22:47.900Z,4.63
2023-05-15T02:25:16.171Z,6.00
2023-05-15T02:28:00.331Z,6.35
2023-05-15T02:30:27.747Z,3.93
2023-05-15T02:33:01.593Z,6.50
2023-05-15T02:35:36.506Z,4.37
2023-05-15T02:38:12.253Z,4.27
2023-05-15T02:40:40.562Z,3.60
2023-05-15T02:43:09.972Z,4.40
2023-05-15T02:45:37.269Z,4.75
2023-05-15T02:48:06.981Z,4.80
2023-05-15T02:50:34.777Z,4.35
2023-05-15T02:53:03.738Z,3.60
2023-05-15T02:55:38.259Z,6.18
2023-05-15T02:58:06.467Z,5.87
2023-05-15T03:00:33.813Z,8.20
2023-05-15T03:03:01.156Z,6.83
2023-05-15T03:05:28.992Z,4.13
2023-05-15T03:07:57.658Z,7.00
2023-05-15T03:10:24.958Z,7.53
2023-05-15T03:12:52.666Z,8.17
2023-05-15T03:15:20.488Z,6.40
2023-05-15T03:17:47.761Z,6.57
2023-05-15T03:20:15.519Z,6.67
2023-05-15T03:22:42.900Z,5.63
2023-05-15T03:25:11.813Z,5.03
2023-05-15T03:30:07.622Z,6.00
2023-05-15T03:32:37.765Z,5.75
2023-05-15T03:35:06.738Z,7.33
2023-05-15T03:37:40.198Z,9.07
2023-05-15T03:40:08.866Z,9.37
2023-05-15T03:42:38.421Z,8.40
2023-05-15T03:45:06.362Z,8.30
2023-05-15T03:47:33.993Z,7.82
2023-05-15T03:50:01.347Z,9.40
2023-05-15T03:52:28.807Z,9.87
2023-05-15T03:54:56.499Z,9.67
2023-05-15T03:57:26.250Z,13.43
2023-05-15T03:59:53.624Z,10.43
2023-05-15T04:02:21.220Z,10.77
2023-05-15T04:04:49.037Z,13.37
2023-05-15T04:07:16.373Z,10.57
2023-05-15T04:09:43.807Z,10.70
2023-05-15T04:12:11.489Z,8.83
2023-05-15T04:14:38.769Z,11.03
2023-05-15T04:17:06.074Z,9.43
2023-05-15T04:19:34.554Z,9.70
2023-05-15T04:22:03.108Z,14.43
2023-05-15T04:24:32.566Z,11.70
2023-05-15T04:27:00.500Z,12.73
2023-05-15T04:29:30.579Z,13.43
2023-05-15T04:31:58.000Z,12.17
2023-05-15T04:34:26.536Z,11.30
2023-05-15T04:36:54.243Z,12.00
2023-05-15T04:39:42.598Z,12.17
2023-05-15T04:42:10.877Z,12.45
2023-05-15T04:44:40.909Z,11.53
2023-05-15T04:47:09.677Z,13.83
2023-05-15T04:49:37.920Z,17.20
2023-05-15T04:52:06.859Z,14.97
2023-05-15T04:54:34.280Z,15.60
2023-05-15T04:57:04.081Z,14.95
2023-05-15T04:59:31.530Z,13.57
2023-05-15T05:01:59.239Z,12.87
2023-05-15T05:04:27.679Z,14.25
2023-05-15T05:07:05.886Z,13.57
2023-05-15T05:09:33.897Z,16.13
2023-05-15T05:12:02.377Z,13.53
2023-05-15T05:14:29.868Z,13.93
2023-05-15T05:16:58.846Z,13.13
2023-05-15T05:19:28.520Z,12.80
2023-05-15T05:21:58.738Z,14.93
2023-05-15T05:24:26.792Z,14.97
2023-05-15T05:26:54.795Z,12.87
2023-05-15T05:29:22.450Z,13.63
2023-05-15T05:31:54.094Z,15.67
2023-05-15T05:34:22.255Z,11.67
2023-05-15T05:36:51.694Z,12.20
2023-05-15T05:39:19.182Z,15.30
2023-05-15T05:41:46.802Z,16.33
2023-05-15T05:44:17.939Z,17.65
2023-05-15T05:46:48.207Z,17.30
2023-05-15T05:49:16.452Z,17.00
2023-05-15T05:51:46.515Z,14.60
2023-05-15T05:54:18.484Z,14.63
2023-05-15T05:56:46.393Z,13.27
2023-05-15T05:59:13.882Z,13.80
2023-05-15T06:01:42.727Z,17.30
2023-05-15T06:06:37.982Z,13.97
2023-05-15T06:09:05.844Z,12.57
2023-05-15T06:11:33.622Z,16.97
2023-05-15T06:14:16.913Z,15.03
2023-05-15T06:16:45.412Z,18.03
2023-05-15T06:19:22.581Z,14.87
2023-05-15T06:21:51.691Z,17.13
2023-05-15T06:24:20.168Z,14.30
2023-05-15T06:26:48.553Z,14.57
2023-05-15T06:29:18.119Z,13.37
2023-05-15T06:31:45.600Z,16.10
2023-05-15T06:34:13.209Z,16.80
2023-05-15T06:36:48.751Z,16.00
2023-05-15T06:39:16.888Z,16.60
2023-05-15T06:41:44.844Z,18.35
2023-05-15T06:44:17.002Z,17.87
2023-05-15T06:46:46.042Z,20.47
2023-05-15T06:49:13.428Z,17.45
2023-05-15T06:51:48.079Z,19.77
2023-05-15T06:54:15.924Z,18.97
2023-05-15T06:59:14.571Z,20.93
2023-05-15T07:01:45.813Z,18.73
2023-05-15T07:04:21.211Z,17.57
2023-05-15T07:06:48.873Z,17.98
2023-05-15T07:09:16.231Z,21.10
2023-05-15T07:11:44.030Z,20.13
2023-05-15T07:14:13.256Z,21.80
2023-05-15T07:16:40.935Z,22.20
2023-05-15T07:19:11.545Z,22.33
2023-05-15T07:21:42.293Z,23.47
2023-05-15T07:24:10.486Z,25.50
2023-05-15T07:26:50.358Z,25.30
2023-05-15T07:29:25.383Z,22.47
2023-05-15T07:31:53.441Z,22.80
2023-05-15T07:34:21.005Z,23.70
2023-05-15T07:36:48.910Z,22.53
2023-05-15T07:39:16.639Z,20.83
2023-05-15T07:41:44.096Z,24.87
2023-05-15T07:44:11.766Z,19.43
2023-05-15T07:46:39.289Z,23.27
2023-05-15T07:49:06.682Z,19.53
2023-05-15T07:51:34.295Z,18.37
2023-05-15T07:54:03.724Z,17.20
2023-05-15T07:56:41.150Z,19.57
2023-05-15T07:59:09.753Z,19.77
2023-05-15T08:01:37.174Z,16.93
2023-05-15T08:04:08.487Z,15.10
2023-05-15T08:06:38.440Z,14.10
2023-05-15T08:09:07.255Z,16.27
2023-05-15T08:11:37.061Z,14.70
2023-05-15T08:14:04.656Z,12.98
2023-05-15T08:16:34.536Z,17.87
2023-05-15T08:19:08.549Z,16.27
2023-05-15T08:21:36.237Z,16.83
2023-05-15T08:24:04.336Z,15.87
2023-05-15T08:26:32.044Z,14.87
2023-05-15T08:29:07.892Z,19.33
2023-05-15T08:31:35.408Z,17.80
2023-05-15T08:34:03.579Z,17.20
2023-05-15T08:36:31.771Z,19.50
2023-05-15T08:39:02.138Z,16.05
2023-05-15T08:41:40.656Z,17.97
2023-05-15T08:44:10.178Z,18.95
2023-05-15T08:46:39.185Z,20.70
2023-05-15T08:49:32.726Z,26.50
2023-05-15T08:52:01.328Z,22.87
2023-05-15T08:54:29.306Z,20.80
2023-05-15T08:56:57.541Z,20.10
2023-05-15T08:59:25.849Z,24.27
2023-05-15T09:01:54.204Z,27.20
2023-05-15T09:04:21.877Z,24.45
2023-05-15T09:06:49.845Z,23.47
2023-05-15T09:09:19.093Z,21.60
2023-05-15T09:14:20.393Z,25.10
2023-05-15T09:16:53.641Z,24.07
2023-05-15T09:19:24.584Z,30.50
2023-05-15T09:21:52.315Z,23.03
2023-05-15T09:24:26.698Z,31.37
2023-05-15T09:27:05.414Z,22.27
2023-05-15T09:29:38.201Z,23.55
2023-05-15T09:32:11.378Z,30.67
2023-05-15T09:34:44.755Z,25.73
2023-05-15T09:37:33.280Z,25.27
2023-05-15T09:40:11.460Z,31.62
2023-05-15T09:42:39.502Z,23.52
2023-05-15T09:45:17.725Z,25.13
2023-05-15T09:47:47.213Z,22.90
2023-05-15T09:50:21.791Z,25.90
2023-05-15T09:52:51.024Z,22.57
2023-05-15T09:55:20.492Z,26.65
2023-05-15T09:58:11.871Z,24.83
2023-05-15T10:00:48.751Z,24.23
2023-05-15T10:03:22.066Z,32.83
2023-05-15T10:05:49.714Z,29.50
2023-05-15T10:08:27.657Z,22.13
2023-05-15T10:10:59.837Z,27.87
2023-05-15T10:13:30.079Z,26.53
2023-05-15T10:15:59.206Z,28.47
2023-05-15T10:18:30.426Z,27.57
2023-05-15T10:21:01.402Z,23.37
2023-05-15T10:23:31.504Z,26.10
2023-05-15T10:26:04.555Z,26.03
2023-05-15T10:28:33.693Z,29.80
2023-05-15T10:31:02.442Z,28.20
2023-05-15T10:33:42.945Z,28.42
2023-05-15T10:36:13.377Z,25.27
2023-05-15T10:41:17.684Z,24.33
2023-05-15T10:43:49.546Z,29.03
2023-05-15T10:46:21.886Z,25.70
2023-05-15T10:48:55.208Z,25.97
2023-05-15T10:51:29.050Z,20.50
2023-05-15T10:53:57.880Z,28.77
2023-05-15T10:56:37.481Z,29.63
2023-05-15T10:59:09.060Z,27.53
2023-05-15T11:01:40.810Z,29.27
2023-05-15T11:04:19.697Z,27.77
2023-05-15T11:06:49.655Z,22.77
2023-05-15T11:09:27.987Z,26.23
2023-05-15T11:12:04.925Z,24.40
2023-05-15T11:15:10.450Z,24.73
2023-05-15T11:17:38.939Z,28.23
2023-05-15T11:20:07.832Z,27.10
2023-05-15T11:22:42.041Z,27.73
2023-05-15T11:25:12.702Z,27.17
2023-05-15T11:27:44.967Z,24.97
2023-05-15T11:30:22.252Z,24.43
2023-05-15T11:32:59.187Z,21.00
2023-05-15T11:36:00.192Z,29.53
2023-05-15T11:38:27.696Z,22.90
2023-05-15T11:40:58.794Z,28.10
2023-05-15T11:43:31.179Z,19.97
2023-05-15T11:46:09.789Z,21.20
2023-05-15T11:48:42.562Z,22.73
2023-05-15T11:51:30.275Z,20.40
2023-05-15T11:53:58.705Z,20.77
2023-05-15T11:56:30.789Z,21.37
2023-05-15T11:58:59.591Z,17.67
2023-05-15T12:03:55.422Z,18.37
2023-05-15T12:06:23.215Z,18.93
2023-05-15T12:08:53.980Z,23.10
2023-05-15T12:11:25.431Z,19.63
2023-05-15T12:13:54.409Z,17.37
2023-05-15T12:16:26.844Z,22.00
2023-05-15T12:18:58.662Z,17.50
2023-05-15T12:21:30.992Z,22.53
2023-05-15T12:24:07.757Z,19.80
2023-05-15T12:26:36.335Z,19.57
2023-05-15T12:29:05.197Z,23.03
2023-05-15T12:31:35.897Z,17.85
2023-05-15T12:34:03.799Z,19.73
2023-05-15T12:36:31.285Z,20.60
2023-05-15T12:38:59.024Z,21.50
2023-05-15T12:41:29.845Z,23.73
2023-05-15T12:43:57.331Z,17.67
2023-05-15T12:46:33.897Z,19.37
2023-05-15T12:49:01.985Z,18.57
2023-05-15T12:51:30.241Z,18.27
2023-05-15T12:53:58.476Z,14.45
2023-05-15T12:56:26.686Z,17.87
2023-05-15T12:58:56.184Z,19.83
2023-05-15T13:01:23.726Z,19.17
2023-05-15T13:03:52.178Z,17.60
2023-05-15T13:06:20.008Z,16.60
2023-05-15T13:08:48.144Z,21.10
2023-05-15T13:11:18.472Z,17.10
2023-05-15T13:13:47.639Z,17.33
2023-05-15T13:16:22.968Z,19.10
2023-05-15T13:18:51.283Z,70.30
2023-05-15T13:21:19.201Z,15.80
2023-05-15T13:23:46.598Z,17.57
2023-05-15T13:26:14.350Z,15.93
2023-05-15T13:28:41.915Z,27.30
2023-05-15T13:31:09.570Z,17.48
2023-05-15T13:33:37.735Z,16.43
2023-05-15T13:36:05.493Z,14.13
2023-05-15T13:38:33.642Z,20.92
2023-05-15T13:41:01.311Z,12.50
2023-05-15T13:43:28.594Z,16.10
2023-05-15T13:45:56.276Z,20.17
2023-05-15T13:48:24.106Z,10.77
2023-05-15T13:50:51.456Z,12.55
2023-05-15T13:53:18.930Z,17.15
2023-05-15T13:55:46.978Z,13.50
2023-05-15T13:58:15.087Z,12.20
2023-05-15T14:00:45.490Z,14.73
2023-05-15T14:03:15.095Z,19.00
2023-05-15T14:05:42.800Z,10.10
2023-05-15T14:08:10.422Z,12.85
2023-05-15T14:10:38.375Z,10.77
2023-05-15T14:13:06.034Z,13.32
2023-05-15T14:15:33.374Z,13.35
2023-05-15T14:18:01.206Z,14.52
2023-05-15T14:20:28.744Z,15.25
2023-05-15T14:22:56.337Z,11.98
2023-05-15T14:25:24.649Z,15.73
2023-05-15T14:27:52.055Z,12.23
2023-05-15T14:30:19.502Z,13.30
2023-05-15T14:32:47.345Z,11.15
2023-05-15T14:35:14.810Z,9.68
2023-05-15T14:37:43.383Z,13.65
2023-05-15T14:40:12.804Z,12.27
2023-05-15T14:42:40.653Z,13.07
2023-05-15T14:45:08.393Z,8.40
2023-05-15T14:47:36.031Z,10.37
2023-05-15T14:50:03.592Z,13.43
2023-05-15T14:52:30.948Z,11.18
2023-05-15T14:55:08.462Z,13.15
2023-05-15T14:57:37.630Z,15.68
2023-05-15T15:00:06.880Z,11.38
2023-05-15T15:02:34.629Z,16.12
2023-05-15T15:05:02.160Z,11.63
2023-05-15T15:07:33.159Z,9.80
2023-05-15T15:10:00.532Z,12.40
2023-05-15T15:12:27.896Z,10.48
2023-05-15T15:14:55.688Z,9.75
2023-05-15T15:17:23.014Z,12.63
2023-05-15T15:19:50.325Z,11.02
2023-05-15T15:22:17.977Z,12.65
2023-05-15T15:24:45.316Z,9.43
2023-05-15T15:27:12.695Z,13.98
2023-05-15T15:29:40.387Z,13.10
2023-05-15T15:32:08.042Z,16.62
2023-05-15T15:34:35.551Z,6.87
2023-05-15T15:37:03.367Z,11.15
2023-05-15T15:39:30.777Z,10.38
2023-05-15T15:41:58.183Z,10.32
2023-05-15T15:44:25.975Z,7.37
2023-05-15T15:46:53.277Z,14.13
2023-05-15T15:49:20.773Z,12.40
2023-05-15T15:51:48.421Z,16.45
2023-05-15T15:54:15.790Z,13.62
2023-05-15T15:56:43.120Z,13.48
2023-05-15T15:59:10.821Z,18.73
2023-05-15T16:01:38.274Z,9.40
2023-05-15T16:04:05.946Z,15.07
2023-05-15T16:06:34.082Z,16.50
2023-05-15T16:09:01.554Z,15.82
2023-05-15T16:11:30.080Z,15.82
2023-05-15T16:13:57.421Z,13.82
2023-05-15T16:16:24.792Z,17.90
2023-05-15T16:18:52.592Z,19.90
2023-05-15T16:21:21.292Z,16.23
2023-05-15T16:23:48.570Z,17.95
2023-05-15T16:26:16.210Z,15.40
2023-05-15T16:28:43.488Z,19.98
2023-05-15T16:31:10.968Z,20.50
2023-05-15T16:33:38.792Z,24.37
2023-05-15T16:36:06.635Z,21.13
2023-05-15T16:38:33.963Z,24.17
2023-05-15T16:41:02.427Z,34.97
2023-05-15T16:43:29.943Z,20.65
2023-05-15T16:45:57.373Z,29.33
2023-05-15T16:48:27.564Z,23.80
2023-05-15T16:50:55.282Z,23.10
2023-05-15T16:53:23.197Z,19.87
2023-05-15T16:55:51.079Z,23.62
2023-05-15T16:58:18.511Z,27.13
2023-05-15T17:00:45.916Z,25.67
2023-05-15T17:03:13.922Z,22.40
2023-05-15T17:05:41.505Z,22.17
2023-05-15T17:08:08.802Z,24.50
2023-05-15T17:10:36.626Z,21.33
2023-05-15T17:13:04.767Z,36.27
2023-05-15T17:15:32.328Z,23.23
2023-05-15T17:17:59.972Z,23.97
2023-05-15T17:20:27.424Z,25.93
2023-05-15T17:22:54.914Z,31.67
2023-05-15T17:25:22.624Z,25.77
2023-05-15T17:27:50.003Z,38.93
2023-05-15T17:30:17.417Z,35.10
2023-05-15T17:32:45.104Z,27.70
2023-05-15T17:35:12.511Z,25.17
2023-05-15T17:37:40.226Z,27.70
2023-05-15T17:40:09.577Z,24.60
2023-05-15T17:42:37.031Z,22.05
2023-05-15T17:45:04.874Z,25.00
2023-05-15T17:47:32.720Z,21.65
2023-05-15T17:50:00.180Z,23.53
2023-05-15T17:52:27.936Z,22.53
2023-05-15T17:54:55.870Z,24.70
2023-05-15T17:57:23.245Z,23.47
2023-05-15T17:59:50.605Z,26.57
2023-05-15T18:02:18.553Z,26.60
2023-05-15T18:04:46.173Z,25.17
2023-05-15T18:07:13.455Z,26.70
2023-05-15T18:09:40.817Z,24.80
2023-05-15T18:12:08.664Z,27.20
2023-05-15T18:17:03.978Z,33.00
2023-05-15T18:19:31.666Z,31.77
2023-05-15T18:22:02.950Z,31.63
2023-05-15T18:24:30.400Z,27.90
2023-05-15T18:26:58.207Z,31.90
2023-05-15T18:29:31.501Z,31.07
2023-05-15T18:31:59.751Z,27.73
2023-05-15T18:34:27.120Z,31.40
2023-05-15T18:36:54.666Z,40.93
2023-05-15T18:41:51.773Z,30.80
2023-05-15T18:44:19.555Z,30.12
2023-05-15T18:46:47.374Z,29.97
2023-05-15T18:49:17.414Z,30.20
2023-05-15T18:51:44.934Z,30.33
2023-05-15T18:54:12.867Z,32.20
2023-05-15T18:56:42.452Z,30.17
2023-05-15T18:59:10.710Z,33.27
2023-05-15T19:01:38.748Z,32.90
2023-05-15T19:04:06.655Z,28.93
2023-05-15T19:06:33.999Z,28.13
2023-05-15T19:09:01.868Z,30.47
2023-05-15T19:11:29.210Z,28.03
2023-05-15T19:13:56.737Z,33.07
2023-05-15T19:16:28.611Z,28.47
2023-05-15T19:18:56.478Z,28.00
2023-05-15T19:21:24.371Z,32.97
2023-05-15T19:23:51.710Z,30.40
2023-05-15T19:26:21.840Z,29.98
2023-05-15T19:28:49.655Z,45.03
2023-05-15T19:31:27.922Z,30.37
2023-05-15T19:33:59.200Z,29.47
2023-05-15T19:36:27.969Z,34.20
2023-05-15T19:38:55.485Z,30.87
2023-05-15T19:41:23.724Z,35.43
2023-05-15T19:43:51.302Z,31.67
2023-05-15T19:46:18.968Z,31.30
2023-05-15T19:48:46.878Z,34.30
2023-05-15T19:51:14.590Z,38.20
2023-05-15T19:53:41.997Z,32.57
2023-05-15T19:56:09.829Z,31.93
2023-05-15T19:58:37.170Z,30.80
2023-05-15T20:01:04.639Z,32.07
2023-05-15T20:03:35.128Z,30.07
2023-05-15T20:06:03.129Z,34.47
2023-05-15T20:08:30.772Z,32.43
2023-05-15T20:10:58.676Z,34.23
2023-05-15T20:13:26.094Z,30.60
2023-05-15T20:15:57.933Z,32.27
2023-05-15T20:18:27.297Z,32.20
2023-05-15T20:20:54.706Z,34.35
2023-05-15T20:23:22.928Z,31.70
2023-05-15T20:25:51.552Z,32.85
2023-05-15T20:28:19.211Z,32.95
2023-05-15T20:30:49.255Z,38.43
2023-05-15T20:33:17.015Z,33.67
2023-05-15T20:35:45.638Z,37.90
2023-05-15T20:38:13.099Z,37.92
2023-05-15T20:40:41.155Z,34.07
2023-05-15T20:43:08.488Z,31.80
2023-05-15T20:45:35.942Z,33.30
2023-05-15T20:48:04.027Z,39.37
2023-05-15T20:50:31.483Z,32.90
2023-05-15T20:52:58.856Z,41.33
2023-05-15T20:55:26.565Z,34.93
2023-05-15T20:57:53.977Z,35.60
2023-05-15T21:00:21.619Z,34.97
2023-05-15T21:02:49.404Z,35.93
2023-05-15T21:05:16.940Z,33.97
2023-05-15T21:07:44.601Z,33.67
2023-05-15T21:10:12.289Z,33.33
2023-05-15T21:12:40.042Z,37.93
2023-05-15T21:15:08.166Z,36.03
2023-05-15T21:17:35.835Z,42.97
2023-05-15T21:20:04.588Z,36.57
2023-05-15T21:22:34.536Z,33.73
2023-05-15T21:25:02.350Z,30.92
2023-05-15T21:27:29.700Z,38.07
2023-05-15T21:29:57.521Z,36.70
2023-05-15T21:32:25.285Z,29.37
2023-05-15T21:34:52.659Z,34.03
2023-05-15T21:37:20.129Z,31.13
2023-05-15T21:39:47.812Z,36.67
2023-05-15T21:42:15.273Z,31.07
2023-05-15T21:44:43.829Z,32.90
2023-05-15T21:47:11.511Z,31.43
2023-05-15T21:49:38.986Z,41.77
2023-05-15T21:52:06.352Z,33.20
2023-05-15T21:54:34.063Z,32.70
2023-05-15T21:57:01.574Z,32.90
2023-05-15T21:59:28.938Z,31.90
2023-05-15T22:01:56.718Z,30.73
2023-05-15T22:04:24.437Z,35.13
2023-05-15T22:06:51.834Z,33.03
2023-05-15T22:09:19.179Z,29.67
2023-05-15T22:11:46.792Z,27.90
2023-05-15T22:14:14.420Z,29.00
2023-05-15T22:16:41.726Z,28.67
2023-05-15T22:19:21.536Z,28.80
2023-05-15T22:21:58.198Z,31.87
2023-05-15T22:24:26.029Z,29.37
2023-05-15T22:26:53.342Z,28.90
2023-05-15T22:29:20.901Z,27.30
2023-05-15T22:31:48.880Z,32.93
2023-05-15T22:34:16.295Z,25.63
2023-05-15T22:36:43.778Z,24.60
2023-05-15T22:39:12.472Z,28.83
2023-05-15T22:41:42.597Z,28.57
2023-05-15T22:44:09.908Z,30.33
2023-05-15T22:46:37.754Z,27.30
2023-05-15T22:49:09.983Z,29.43
2023-05-15T22:51:38.214Z,25.40
2023-05-15T22:54:05.484Z,25.57
2023-05-15T22:56:32.761Z,30.50
2023-05-15T22:59:00.434Z,28.97
2023-05-15T23:01:30.061Z,25.20
2023-05-15T23:03:57.565Z,30.23
2023-05-15T23:06:25.225Z,30.63
2023-05-15T23:08:52.525Z,24.27
2023-05-15T23:11:20.649Z,28.10
2023-05-15T23:13:48.263Z,25.70
2023-05-15T23:16:15.699Z,31.33
2023-05-15T23:18:43.278Z,25.00
2023-05-15T23:21:11.221Z,29.40
2023-05-15T23:23:38.569Z,31.33
2023-05-15T23:26:05.924Z,24.87
2023-05-15T23:28:33.519Z,25.47
2023-05-15T23:31:00.842Z,27.60
2023-05-15T23:33:28.289Z,25.37
2023-05-15T23:35:55.898Z,25.83
2023-05-15T23:38:23.923Z,25.97
2023-05-15T23:40:51.201Z,27.50
2023-05-15T23:43:19.163Z,25.70
2023-05-15T23:45:46.551Z,26.60
2023-05-15T23:48:13.970Z,23.20
2023-05-15T23:50:41.772Z,28.27
2023-05-15T23:53:09.127Z,27.43
2023-05-15T23:55:36.525Z,24.07
2023-05-15T23:58:04.265Z,26.97
